Abbadia di Naro, Italy

3:04 PM CEST on July 23, 2017 (GMT +0200)
URBANIA | | Change Station

Elev 922 ft 43.67 °N, 12.52 °E | Updated 12 seconds ago

Clear
Clear
93.1 °F
Feels Like 92 °F
N
13.8
Wind Variable Wind from South
Gusts 13.8 mph

Today
High -- | Low -- °F
--% Chance of Precip.
Yesterday
High -- | Low -- °F
Precip. -- in
Pressure 29.95 in
Visibility 6.2 miles
Clouds Few 4000 ft
Heat Index 92 °F
Dew Point 57 °F
Humidity 30%
Rainfall 0.00 in
Snow Depth Not available.
5:49 AM 8:42 PM
New Moon, 0% visible
METAR LIPR 231245Z 05009KT 9999 FEW040 32/24 Q1014
Pressure 29.95 in
Visibility 6.2 miles
Clouds Few 4000 ft
Heat Index 92 °F
Dew Point 57 °F
Humidity 30%
Rainfall 0.00 in
Snow Depth Not available.
5:49 AM 8:42 PM
New Moon, 0% visible
METAR LIPR 231245Z 05009KT 9999 FEW040 32/24 Q1014

Get Severe Weather Alerts

Thanks for signing up!

Be on the lookout for a verification email in your inbox.

You'll start receiving the daily forecast at 6 AM.

×

10-Day Weather Forecast

×

Almanac

Astronomy

Jul. 23, 2017 Rise Set
Actual Time
Civil Twilight
Nautical Twilight
Astronomical Twilight
Moon
Length of Visible Light
Length of Day
Tomorrow will be .
, % of the Moon is Illuminated

Today's Extremes

Country Highs Country Lows

Community

WunderPhotos

Category 6

Welcome to Category 6. This is the collective home for Weather Underground's featured writeups by Dr. Jeff Masters (right), Bob Henson (left), Chris Burt, and other regular contributors.

Nearby

Air Quality

  Air Quality AQ Index Pollutant
Not available.

Snow Depth

Station Depth Elevation

Earthquake Activity

City Distance Mag. Time & Date
Minimum magnitude displayed is 2.5.

Coastal Water Temperatures

Place Temperature

Stations

Nearby Weather Stations

Station Location Temp. Windchill Dew Point Humidity Wind Precip. Elev Updated Type